createdAt,value
2023-08-11T00:01:19.059Z,6.50
2023-08-11T00:06:21.410Z,6.65
2023-08-11T00:11:24.477Z,6.50
2023-08-11T00:16:26.716Z,7.05
2023-08-11T00:21:28.967Z,6.47
2023-08-11T00:26:34.002Z,7.22
2023-08-11T00:31:37.177Z,6.85
2023-08-11T00:36:39.608Z,4.57
2023-08-11T00:41:42.224Z,3.92
2023-08-11T00:46:45.043Z,5.57
2023-08-11T00:51:48.000Z,5.78
2023-08-11T00:56:50.641Z,4.50
2023-08-11T01:01:53.016Z,5.78
2023-08-11T01:07:26.689Z,3.45
2023-08-11T01:12:47.726Z,3.13
2023-08-11T01:17:50.721Z,3.58
2023-08-11T01:22:56.790Z,6.60
2023-08-11T01:28:00.301Z,4.10
2023-08-11T01:33:02.876Z,6.57
2023-08-11T01:38:05.317Z,6.88
2023-08-11T01:43:10.293Z,5.80
2023-08-11T01:48:14.373Z,5.82
2023-08-11T01:53:16.796Z,3.97
2023-08-11T01:58:19.135Z,4.35
2023-08-11T02:03:23.036Z,7.68
2023-08-11T02:08:25.376Z,6.35
2023-08-11T02:13:27.637Z,5.65
2023-08-11T02:18:29.856Z,5.65
2023-08-11T02:23:32.148Z,5.20
2023-08-11T02:28:34.619Z,9.80
2023-08-11T02:33:37.407Z,4.72
2023-08-11T02:38:40.060Z,5.22
2023-08-11T02:43:42.337Z,8.25
2023-08-11T02:48:44.589Z,6.60
2023-08-11T02:53:46.940Z,5.00
2023-08-11T02:58:49.727Z,4.63
2023-08-11T03:03:51.993Z,7.40
2023-08-11T03:08:54.241Z,7.10
2023-08-11T03:13:56.491Z,5.25
2023-08-11T03:18:58.732Z,10.23
2023-08-11T03:24:01.319Z,5.60
2023-08-11T03:29:03.660Z,11.55
2023-08-11T03:34:05.863Z,7.82
2023-08-11T03:39:08.061Z,5.60
2023-08-11T03:44:10.326Z,9.38
2023-08-11T03:49:13.400Z,10.52
2023-08-11T03:54:15.626Z,12.63
2023-08-11T03:59:17.909Z,7.65
2023-08-11T04:04:20.254Z,10.55
2023-08-11T04:09:22.627Z,8.73
2023-08-11T04:14:25.990Z,11.20
2023-08-11T04:19:28.260Z,8.70
2023-08-11T04:24:30.507Z,23.58
2023-08-11T04:29:32.787Z,15.27
2023-08-11T04:34:35.436Z,10.20
2023-08-11T04:39:38.599Z,10.88
2023-08-11T04:44:40.853Z,12.18
2023-08-11T04:49:43.632Z,10.40
2023-08-11T04:54:46.227Z,12.30
2023-08-11T04:59:49.744Z,10.90
2023-08-11T05:04:52.036Z,10.48
2023-08-11T05:09:54.379Z,9.50
2023-08-11T05:14:56.629Z,10.88
2023-08-11T05:19:59.161Z,10.70
2023-08-11T05:25:03.957Z,14.63
2023-08-11T05:30:08.884Z,11.75
2023-08-11T05:35:11.239Z,9.45
2023-08-11T05:40:13.656Z,12.88
2023-08-11T05:45:18.034Z,10.57
2023-08-11T05:50:21.629Z,9.35
2023-08-11T05:55:24.333Z,12.07
2023-08-11T06:00:26.611Z,8.60
2023-08-11T06:05:29.434Z,9.77
2023-08-11T06:10:32.470Z,10.20
2023-08-11T06:15:34.680Z,8.27
2023-08-11T06:20:41.585Z,8.50
2023-08-11T06:25:44.785Z,4.00
2023-08-11T06:30:47.519Z,3.00
2023-08-11T06:35:49.917Z,5.85
2023-08-11T06:40:53.533Z,3.13
2023-08-11T06:46:01.124Z,3.08
2023-08-11T06:51:05.898Z,4.40
2023-08-11T06:56:08.803Z,3.25
2023-08-11T07:01:11.216Z,3.40
2023-08-11T07:06:13.981Z,2.15
2023-08-11T07:11:19.989Z,4.63
2023-08-11T07:16:23.256Z,5.20
2023-08-11T07:21:26.073Z,3.00
2023-08-11T07:26:28.370Z,2.25
2023-08-11T07:31:30.887Z,2.42
2023-08-11T07:36:33.277Z,2.45
2023-08-11T07:41:36.288Z,2.33
2023-08-11T07:46:38.677Z,2.97
2023-08-11T07:51:42.641Z,2.70
2023-08-11T07:56:46.410Z,2.25
2023-08-11T08:01:53.728Z,3.00
2023-08-11T08:06:56.463Z,1.92
2023-08-11T08:11:58.699Z,3.25
2023-08-11T08:17:02.885Z,2.47
2023-08-11T08:22:07.903Z,2.38
2023-08-11T08:27:11.197Z,3.78
2023-08-11T08:32:13.573Z,2.67
2023-08-11T08:37:22.648Z,1.65
2023-08-11T08:42:27.151Z,2.33
2023-08-11T08:47:30.453Z,1.55
2023-08-11T08:52:33.982Z,1.73
2023-08-11T08:57:36.308Z,1.70
2023-08-11T09:02:39.097Z,5.68
2023-08-11T09:07:41.587Z,4.00
2023-08-11T09:12:46.303Z,3.25
2023-08-11T09:17:49.320Z,3.10
2023-08-11T09:22:51.757Z,1.40
2023-08-11T09:27:54.078Z,1.90
2023-08-11T09:32:56.782Z,2.15
2023-08-11T09:37:59.081Z,2.80
2023-08-11T09:43:01.393Z,1.55
2023-08-11T09:48:03.994Z,1.83
2023-08-11T09:53:07.816Z,3.47
2023-08-11T09:58:13.826Z,18.00
2023-08-11T10:03:21.755Z,1.92
2023-08-11T10:08:27.907Z,2.65
2023-08-11T10:13:31.037Z,2.55
2023-08-11T10:18:34.368Z,2.22
2023-08-11T10:23:37.928Z,1.27
2023-08-11T10:28:40.932Z,1.73
2023-08-11T10:33:50.711Z,1.40
2023-08-11T10:39:07.537Z,3.25
2023-08-11T10:44:09.888Z,2.25
2023-08-11T10:49:12.050Z,1.92
2023-08-11T10:54:24.144Z,4.00
2023-08-11T10:59:30.385Z,1.38
2023-08-11T11:04:34.028Z,3.10
2023-08-11T11:09:36.859Z,2.83
2023-08-11T11:14:39.369Z,1.55
2023-08-11T11:19:42.147Z,3.05
2023-08-11T11:24:44.369Z,1.00
2023-08-11T11:29:46.626Z,1.83
2023-08-11T11:34:48.958Z,1.38
2023-08-11T11:39:52.093Z,1.05
2023-08-11T11:44:54.542Z,2.25
2023-08-11T11:50:00.508Z,2.88
2023-08-11T11:55:02.956Z,1.25
2023-08-11T12:00:11.412Z,2.70
2023-08-11T12:05:14.301Z,1.63
2023-08-11T12:10:18.917Z,1.30
2023-08-11T12:15:21.347Z,2.47
2023-08-11T12:20:24.355Z,1.02
2023-08-11T12:25:26.635Z,1.13
2023-08-11T12:30:29.418Z,1.85
2023-08-11T12:35:31.654Z,1.60
2023-08-11T12:40:34.720Z,1.63
2023-08-11T12:45:38.098Z,1.40
2023-08-11T12:50:42.114Z,3.45
2023-08-11T12:55:50.246Z,1.63
2023-08-11T13:00:52.542Z,4.47
2023-08-11T13:05:54.896Z,1.80
2023-08-11T13:10:57.552Z,1.55
2023-08-11T13:15:59.788Z,1.30
2023-08-11T13:21:02.275Z,1.65
2023-08-11T13:26:04.711Z,1.80
2023-08-11T13:31:07.059Z,1.35
2023-08-11T13:36:10.093Z,1.27
2023-08-11T13:41:12.375Z,2.58
2023-08-11T13:46:14.639Z,1.27
2023-08-11T13:51:17.327Z,1.60
2023-08-11T13:56:19.760Z,1.35
2023-08-11T14:01:22.085Z,2.35
2023-08-11T14:06:24.549Z,2.45
2023-08-11T14:11:26.988Z,1.63
2023-08-11T14:16:29.323Z,1.98
2023-08-11T14:21:31.573Z,0.93
2023-08-11T14:26:33.858Z,1.33
2023-08-11T14:31:36.189Z,2.03
2023-08-11T14:36:38.612Z,1.23
2023-08-11T14:41:40.945Z,1.27
2023-08-11T14:46:45.420Z,1.58
2023-08-11T14:51:49.952Z,3.15
2023-08-11T14:56:52.263Z,0.90
2023-08-11T15:01:54.469Z,2.80
2023-08-11T15:06:56.748Z,1.00
2023-08-11T15:11:59.186Z,2.30
2023-08-11T15:17:01.829Z,1.27
2023-08-11T15:22:04.198Z,3.65
2023-08-11T15:27:06.823Z,2.70
2023-08-11T15:32:09.103Z,1.05
2023-08-11T15:37:12.654Z,1.20
2023-08-11T15:42:15.117Z,2.50
2023-08-11T15:47:17.359Z,4.65
2023-08-11T15:52:19.703Z,1.70
2023-08-11T15:57:22.919Z,2.22
2023-08-11T16:02:25.761Z,3.08
2023-08-11T16:07:28.956Z,3.97
2023-08-11T16:12:31.294Z,6.97
2023-08-11T16:17:35.213Z,1.63
2023-08-11T16:22:37.447Z,2.15
2023-08-11T16:27:39.953Z,3.38
2023-08-11T16:32:42.246Z,3.20
2023-08-11T16:37:44.489Z,6.38
2023-08-11T16:42:46.786Z,5.65
2023-08-11T16:47:49.085Z,3.20
2023-08-11T16:52:57.468Z,2.17
2023-08-11T16:57:59.676Z,2.38
2023-08-11T17:03:02.072Z,3.65
2023-08-11T17:08:04.778Z,6.80
2023-08-11T17:13:07.053Z,3.33
2023-08-11T17:18:09.574Z,5.38
2023-08-11T17:23:11.883Z,1.30
2023-08-11T17:28:14.246Z,2.15
2023-08-11T17:33:16.461Z,1.75
2023-08-11T17:38:18.710Z,3.50
2023-08-11T17:43:21.026Z,3.47
2023-08-11T17:48:23.274Z,5.20
2023-08-11T17:53:25.615Z,1.88
2023-08-11T17:58:28.126Z,3.28
2023-08-11T18:03:30.451Z,1.85
2023-08-11T18:08:32.803Z,7.07
2023-08-11T18:13:35.098Z,4.65
2023-08-11T18:18:37.417Z,5.43
2023-08-11T18:23:40.065Z,4.20
2023-08-11T18:28:42.334Z,5.40
2023-08-11T18:33:44.626Z,5.18
2023-08-11T18:38:49.014Z,2.42
2023-08-11T18:43:51.252Z,2.30
2023-08-11T18:48:53.600Z,4.15
2023-08-11T18:53:56.045Z,4.53
2023-08-11T18:58:58.245Z,8.07
2023-08-11T19:04:00.533Z,3.03
2023-08-11T19:09:03.071Z,2.85
2023-08-11T19:14:06.814Z,3.70
2023-08-11T19:19:12.618Z,2.22
2023-08-11T19:24:14.931Z,4.53
2023-08-11T19:29:17.183Z,5.05
2023-08-11T19:34:19.453Z,5.47
2023-08-11T19:39:21.693Z,3.70
2023-08-11T19:44:24.766Z,4.55
2023-08-11T19:49:26.954Z,5.10
2023-08-11T19:54:29.330Z,1.73
2023-08-11T19:59:31.604Z,4.68
2023-08-11T20:04:34.014Z,2.97
2023-08-11T20:09:36.782Z,9.65
2023-08-11T20:14:38.993Z,9.02
2023-08-11T20:19:41.291Z,13.07
2023-08-11T20:24:43.550Z,10.43
2023-08-11T20:29:45.750Z,9.40
2023-08-11T20:34:48.141Z,14.73
2023-08-11T20:39:50.452Z,9.43
2023-08-11T20:44:58.253Z,5.60
2023-08-11T20:50:03.458Z,4.60
2023-08-11T20:55:06.239Z,5.68
2023-08-11T21:00:09.850Z,4.07
2023-08-11T21:05:12.482Z,4.35
2023-08-11T21:10:16.188Z,4.65
2023-08-11T21:15:18.773Z,3.72
2023-08-11T21:20:21.009Z,4.57
2023-08-11T21:25:23.291Z,6.25
2023-08-11T21:30:26.145Z,7.47
2023-08-11T21:35:28.399Z,5.70
2023-08-11T21:40:31.132Z,4.53
2023-08-11T21:45:33.404Z,8.15
2023-08-11T21:50:36.214Z,4.60
2023-08-11T21:55:38.485Z,10.30
2023-08-11T22:00:42.973Z,6.68
2023-08-11T22:05:45.186Z,11.68
2023-08-11T22:10:47.735Z,4.47
2023-08-11T22:15:51.248Z,3.83
2023-08-11T22:20:53.433Z,4.22
2023-08-11T22:25:55.695Z,3.80
2023-08-11T22:30:59.068Z,6.03
2023-08-11T22:36:01.368Z,5.65
2023-08-11T22:41:03.608Z,3.33
2023-08-11T22:46:06.033Z,4.10
2023-08-11T22:51:08.630Z,2.50
2023-08-11T22:56:11.235Z,9.80
2023-08-11T23:01:15.352Z,6.72
2023-08-11T23:06:17.716Z,3.40
2023-08-11T23:11:20.079Z,3.00
2023-08-11T23:16:22.345Z,3.75
2023-08-11T23:21:24.708Z,11.07
2023-08-11T23:26:27.056Z,2.90
2023-08-11T23:31:29.326Z,2.60
2023-08-11T23:36:31.605Z,4.70
2023-08-11T23:41:33.864Z,5.90
2023-08-11T23:46:36.249Z,4.00
2023-08-11T23:51:38.606Z,4.80
2023-08-11T23:56:43.411Z,2.47
